createdAt,value
2017-06-18T00:01:16.353Z,18.20
2017-06-18T00:03:44.584Z,18.30
2017-06-18T00:06:12.043Z,18.30
2017-06-18T00:08:39.527Z,18.30
2017-06-18T00:11:06.982Z,18.30
2017-06-18T00:13:34.446Z,18.30
2017-06-18T00:16:01.911Z,18.20
2017-06-18T00:18:30.133Z,18.20
2017-06-18T00:20:57.628Z,18.20
2017-06-18T00:23:25.082Z,18.20
2017-06-18T00:25:52.555Z,18.10
2017-06-18T00:28:20.779Z,18.10
2017-06-18T00:30:48.242Z,18.00
2017-06-18T00:33:15.742Z,18.00
2017-06-18T00:35:43.294Z,18.10
2017-06-18T00:38:10.753Z,18.10
2017-06-18T00:40:38.294Z,18.10
2017-06-18T00:43:05.741Z,18.10
2017-06-18T00:45:33.200Z,18.10
2017-06-18T00:48:00.761Z,18.10
2017-06-18T00:50:28.212Z,18.00
2017-06-18T00:52:55.774Z,18.00
2017-06-18T00:55:23.232Z,18.00
2017-06-18T00:57:50.755Z,18.00
2017-06-18T01:00:18.246Z,18.10
2017-06-18T01:02:45.809Z,18.10
2017-06-18T01:05:13.260Z,18.10
2017-06-18T01:07:40.821Z,18.00
2017-06-18T01:10:08.273Z,18.00
2017-06-18T01:12:35.749Z,17.90
2017-06-18T01:15:03.205Z,17.90
2017-06-18T01:17:30.659Z,17.80
2017-06-18T01:19:58.215Z,17.70
2017-06-18T01:22:25.661Z,17.70
2017-06-18T01:24:53.230Z,17.70
2017-06-18T01:27:20.779Z,17.80
2017-06-18T01:29:48.343Z,17.90
2017-06-18T01:32:15.793Z,17.90
2017-06-18T01:34:43.261Z,17.90
2017-06-18T01:37:10.810Z,17.90
2017-06-18T01:39:38.279Z,18.00
2017-06-18T01:42:05.830Z,18.00
2017-06-18T01:44:33.281Z,18.00
2017-06-18T01:47:00.847Z,18.00
2017-06-18T01:49:28.326Z,18.00
2017-06-18T01:51:56.577Z,18.00
2017-06-18T01:54:24.029Z,17.90
2017-06-18T01:56:51.499Z,17.90
2017-06-18T01:59:19.053Z,17.80
2017-06-18T02:01:46.519Z,17.80
2017-06-18T02:04:14.069Z,17.80
2017-06-18T02:06:41.535Z,17.70
2017-06-18T02:09:09.767Z,17.70
2017-06-18T02:11:37.238Z,17.60
2017-06-18T02:14:04.698Z,17.60
2017-06-18T02:16:32.266Z,17.60
2017-06-18T02:18:59.743Z,17.70
2017-06-18T02:21:27.240Z,17.80
2017-06-18T02:23:54.742Z,17.90
2017-06-18T02:26:22.210Z,17.80
2017-06-18T02:28:50.470Z,17.70
2017-06-18T02:31:17.925Z,17.60
2017-06-18T02:33:45.480Z,17.60
2017-06-18T02:36:12.951Z,17.60
2017-06-18T02:38:40.500Z,17.60
2017-06-18T02:41:08.058Z,17.50
2017-06-18T02:43:35.522Z,17.50
2017-06-18T02:46:02.973Z,17.50
2017-06-18T02:48:30.532Z,17.50
2017-06-18T02:50:57.997Z,17.50
2017-06-18T02:53:25.456Z,17.50
2017-06-18T02:55:52.993Z,17.50
2017-06-18T02:58:20.460Z,17.50
2017-06-18T03:00:48.010Z,17.50
2017-06-18T03:03:15.494Z,17.40
2017-06-18T03:05:43.714Z,17.30
2017-06-18T03:08:11.177Z,17.40
2017-06-18T03:10:39.482Z,17.40
2017-06-18T03:13:06.945Z,17.30
2017-06-18T03:15:35.219Z,17.30
2017-06-18T03:18:02.681Z,17.30
2017-06-18T03:20:30.146Z,17.30
2017-06-18T03:23:04.070Z,17.30
2017-06-18T03:25:31.553Z,17.30
2017-06-18T03:27:59.050Z,17.30
2017-06-18T03:30:26.519Z,17.30
2017-06-18T03:32:54.058Z,17.40
2017-06-18T03:35:21.519Z,17.40
2017-06-18T03:37:48.973Z,17.30
2017-06-18T03:40:16.437Z,17.30
2017-06-18T03:42:43.903Z,17.30
2017-06-18T03:45:12.147Z,17.30
2017-06-18T03:47:39.612Z,17.20
2017-06-18T03:50:07.073Z,17.20
2017-06-18T03:52:34.631Z,17.20
2017-06-18T03:55:02.090Z,17.20
2017-06-18T03:57:29.558Z,17.20
2017-06-18T03:59:57.402Z,17.10
2017-06-18T04:02:24.877Z,17.20
2017-06-18T04:04:53.110Z,17.20
2017-06-18T04:07:20.566Z,17.20
2017-06-18T04:09:48.022Z,17.30
2017-06-18T04:12:15.501Z,17.20
2017-06-18T04:14:43.062Z,17.20
2017-06-18T04:17:10.526Z,17.20
2017-06-18T04:19:37.982Z,17.20
2017-06-18T04:22:05.539Z,17.30
2017-06-18T04:24:32.998Z,17.20
2017-06-18T04:27:00.460Z,17.20
2017-06-18T04:29:28.011Z,17.20
2017-06-18T07:32:36.576Z,20.40
2017-06-18T07:35:04.033Z,20.50
2017-06-18T07:37:31.485Z,21.00
2017-06-18T07:39:58.941Z,21.50
2017-06-18T07:42:26.393Z,21.20
2017-06-18T07:44:53.857Z,21.60
2017-06-18T07:47:21.322Z,21.80
2017-06-18T07:49:48.791Z,21.60
2017-06-18T07:52:17.007Z,21.60
2017-06-18T07:54:44.460Z,21.60
2017-06-18T07:57:11.915Z,22.00
2017-06-18T07:59:39.370Z,21.50
2017-06-18T08:02:06.825Z,21.20
2017-06-18T08:04:34.285Z,21.80
2017-06-18T08:07:01.775Z,21.70
2017-06-18T08:09:29.233Z,21.40
2017-06-18T08:11:56.691Z,21.60
2017-06-18T08:14:24.146Z,21.80
2017-06-18T08:16:51.609Z,21.90
2017-06-18T08:19:19.168Z,22.00
2017-06-18T08:21:46.639Z,21.90
2017-06-18T08:24:14.859Z,22.30
2017-06-18T08:26:42.314Z,22.20
2017-06-18T08:29:09.753Z,22.20
2017-06-18T08:31:37.261Z,22.10
2017-06-18T08:34:04.818Z,22.40
2017-06-18T08:36:32.277Z,21.70
2017-06-18T08:38:59.724Z,21.20
2017-06-18T08:41:27.193Z,21.20
2017-06-18T08:43:54.645Z,21.70
2017-06-18T08:46:22.117Z,22.20
2017-06-18T08:48:50.337Z,22.10
2017-06-18T08:51:17.798Z,22.10
2017-06-18T08:53:45.298Z,22.10
2017-06-18T08:56:12.742Z,22.50
2017-06-18T08:58:40.201Z,22.20
2017-06-18T09:01:07.655Z,22.20
2017-06-18T09:03:35.115Z,22.40
2017-06-18T09:06:02.562Z,22.40
2017-06-18T09:08:30.031Z,22.60
2017-06-18T09:10:57.473Z,22.20
2017-06-18T09:13:24.936Z,22.30
2017-06-18T09:15:52.490Z,22.30
2017-06-18T09:18:19.954Z,22.60
2017-06-18T09:20:47.397Z,22.60
2017-06-18T09:23:14.858Z,22.50
2017-06-18T09:25:42.309Z,22.50
2017-06-18T09:28:09.766Z,22.20
2017-06-18T09:30:37.218Z,21.90
2017-06-18T09:33:04.667Z,21.90
2017-06-18T09:35:32.130Z,22.40
2017-06-18T09:37:59.585Z,22.60
2017-06-18T09:40:27.050Z,22.80
2017-06-18T09:42:54.505Z,22.80
2017-06-18T09:45:21.957Z,23.10
2017-06-18T09:47:49.409Z,23.00
2017-06-18T09:50:16.869Z,23.00
2017-06-18T09:52:44.341Z,22.70
2017-06-18T09:55:11.797Z,22.70
2017-06-18T09:57:39.253Z,22.90
2017-06-18T10:00:06.715Z,23.00
2017-06-18T10:02:34.169Z,22.80
2017-06-18T10:05:01.623Z,23.00
2017-06-18T10:07:29.078Z,22.90
2017-06-18T10:09:56.534Z,22.90
2017-06-18T10:12:24.006Z,23.20
2017-06-18T10:14:51.450Z,23.60
2017-06-18T10:17:19.378Z,23.50
2017-06-18T10:19:46.838Z,23.90
2017-06-18T10:22:15.254Z,23.90
2017-06-18T10:24:42.803Z,23.70
2017-06-18T10:27:10.916Z,23.50
2017-06-18T10:29:38.365Z,23.20
2017-06-18T10:32:06.599Z,23.40
2017-06-18T10:34:34.061Z,23.40
2017-06-18T10:37:01.510Z,23.70
2017-06-18T10:39:28.962Z,23.20
2017-06-18T10:41:56.418Z,23.00
2017-06-18T10:44:23.985Z,23.40
2017-06-18T10:46:51.433Z,23.60
2017-06-18T10:49:18.894Z,24.00
2017-06-18T10:51:46.346Z,24.40
2017-06-18T10:54:13.909Z,24.50
2017-06-18T10:56:41.366Z,24.60
2017-06-18T10:59:08.845Z,24.50
2017-06-18T11:01:36.390Z,24.30
2017-06-18T11:04:03.946Z,24.00
2017-06-18T11:06:31.406Z,23.60
2017-06-18T11:08:58.867Z,23.40
2017-06-18T11:11:26.328Z,23.70
2017-06-18T11:13:53.773Z,23.70
2017-06-18T11:16:21.333Z,23.70
2017-06-18T11:18:48.789Z,23.50
2017-06-18T11:21:16.243Z,23.90
2017-06-18T11:23:43.700Z,24.30
2017-06-18T11:26:11.262Z,24.60
2017-06-18T11:28:38.724Z,24.20
2017-06-18T11:31:06.182Z,24.30
2017-06-18T11:33:33.729Z,24.50
2017-06-18T11:36:01.281Z,24.60
2017-06-18T11:38:28.740Z,24.70
2017-06-18T11:40:56.300Z,24.90
2017-06-18T11:43:23.761Z,24.80
2017-06-18T11:45:51.209Z,24.80
2017-06-18T11:48:18.671Z,24.80
2017-06-18T11:50:46.222Z,24.90
2017-06-18T11:53:13.682Z,24.50
2017-06-18T11:55:41.129Z,24.70
2017-06-18T11:58:08.699Z,24.80
2017-06-18T12:00:36.258Z,25.10
2017-06-18T12:03:03.714Z,25.00
2017-06-18T12:05:31.169Z,24.50
2017-06-18T12:07:58.624Z,24.70
2017-06-18T12:10:26.076Z,24.80
2017-06-18T12:12:53.534Z,24.90
2017-06-18T12:15:20.985Z,25.10
2017-06-18T12:17:48.434Z,25.10
2017-06-18T12:20:15.894Z,24.90
2017-06-18T12:22:43.354Z,24.90
2017-06-18T12:25:10.809Z,24.80
2017-06-18T12:27:38.261Z,24.80
2017-06-18T12:30:05.838Z,25.00
2017-06-18T12:32:33.286Z,25.30
2017-06-18T12:35:00.742Z,25.50
2017-06-18T12:37:28.193Z,25.20
2017-06-18T12:39:55.655Z,25.30
2017-06-18T12:42:23.107Z,25.20
2017-06-18T12:44:50.570Z,25.50
2017-06-18T12:47:18.123Z,25.50
2017-06-18T12:49:45.694Z,25.60
2017-06-18T12:52:14.470Z,25.50
2017-06-18T12:54:42.033Z,25.20
2017-06-18T12:57:09.498Z,25.20
2017-06-18T12:59:36.957Z,25.40
2017-06-18T13:02:04.418Z,25.40
2017-06-18T13:04:31.886Z,25.50
2017-06-18T13:07:00.120Z,25.80
2017-06-18T13:09:27.591Z,25.80
2017-06-18T13:11:55.145Z,25.70
2017-06-18T13:14:23.318Z,25.70
2017-06-18T13:16:50.887Z,26.00
2017-06-18T13:19:18.337Z,25.90
2017-06-18T13:21:45.795Z,25.30
2017-06-18T13:24:13.349Z,25.40
2017-06-18T13:26:40.798Z,25.50
2017-06-18T13:29:08.258Z,25.60
2017-06-18T13:31:35.714Z,25.80
2017-06-18T13:34:03.170Z,25.70
2017-06-18T13:36:30.731Z,25.80
2017-06-18T13:38:58.189Z,25.60
2017-06-18T13:41:25.647Z,25.80
2017-06-18T13:43:53.101Z,25.80
2017-06-18T13:46:20.551Z,26.00
2017-06-18T13:48:48.119Z,26.00
2017-06-18T13:51:15.571Z,26.40
2017-06-18T13:53:43.055Z,26.40
2017-06-18T13:56:11.310Z,26.60
2017-06-18T13:58:38.768Z,26.50
2017-06-18T14:01:06.213Z,26.80
2017-06-18T14:03:33.668Z,26.50
2017-06-18T14:06:01.130Z,26.70
2017-06-18T14:08:28.682Z,26.60
2017-06-18T14:10:56.146Z,26.30
2017-06-18T14:13:23.584Z,26.30
2017-06-18T14:15:51.061Z,26.20
2017-06-18T14:18:18.515Z,26.00
2017-06-18T14:20:45.970Z,26.20
2017-06-18T14:23:13.422Z,26.40
2017-06-18T14:25:40.951Z,26.50
2017-06-18T14:28:08.400Z,26.50
2017-06-18T14:30:35.865Z,26.60
2017-06-18T14:33:03.321Z,26.70
2017-06-18T14:35:30.773Z,26.80
2017-06-18T14:37:58.237Z,26.90
2017-06-18T14:40:25.691Z,26.60
2017-06-18T14:42:53.159Z,26.70
2017-06-18T14:45:20.635Z,26.60
2017-06-18T14:47:48.089Z,26.80
2017-06-18T14:50:15.539Z,26.70
2017-06-18T14:52:42.993Z,26.60
2017-06-18T14:55:10.558Z,26.40
2017-06-18T14:57:38.026Z,26.20
2017-06-18T15:00:05.480Z,26.40
2017-06-18T15:02:32.937Z,26.70
2017-06-18T15:05:00.395Z,26.90
2017-06-18T15:07:27.813Z,26.90
2017-06-18T15:09:55.302Z,26.90
2017-06-18T15:12:22.862Z,26.90
2017-06-18T15:14:50.317Z,27.00
2017-06-18T15:17:17.768Z,27.40
2017-06-18T15:19:45.234Z,27.80
2017-06-18T15:22:12.691Z,27.50
2017-06-18T15:24:40.154Z,27.30
2017-06-18T15:27:07.603Z,27.40
2017-06-18T15:29:35.070Z,26.90
2017-06-18T15:32:02.516Z,26.90
2017-06-18T15:34:29.974Z,26.70
2017-06-18T15:36:57.530Z,26.80
2017-06-18T15:39:24.996Z,26.50
2017-06-18T15:41:52.447Z,26.60
2017-06-18T15:44:19.897Z,26.70
2017-06-18T15:46:47.346Z,26.80
2017-06-18T15:49:14.910Z,26.70
2017-06-18T15:51:42.368Z,27.00
2017-06-18T15:54:09.849Z,27.20
2017-06-18T15:56:38.061Z,26.80
2017-06-18T15:59:05.549Z,26.80
2017-06-18T16:01:33.005Z,26.80
2017-06-18T16:04:00.462Z,27.10
2017-06-18T16:06:28.028Z,27.10
2017-06-18T16:08:55.478Z,27.40
2017-06-18T16:11:22.946Z,27.30
2017-06-18T16:13:50.498Z,27.10
2017-06-18T16:16:17.954Z,27.30
2017-06-18T16:18:45.409Z,27.30
2017-06-18T16:21:12.875Z,27.40
2017-06-18T16:23:40.417Z,27.40
2017-06-18T16:26:07.985Z,27.20
2017-06-18T16:28:35.437Z,27.00
2017-06-18T16:31:02.915Z,27.20
2017-06-18T16:33:31.170Z,27.50
2017-06-18T16:35:58.718Z,27.50
2017-06-18T16:38:26.181Z,27.20
2017-06-18T16:40:53.747Z,26.90
2017-06-18T16:43:21.199Z,27.30
2017-06-18T16:45:48.647Z,27.50
2017-06-18T16:48:16.106Z,27.70
2017-06-18T16:50:44.577Z,27.80
2017-06-18T16:53:12.029Z,27.80
2017-06-18T16:55:39.481Z,27.90
2017-06-18T16:58:07.058Z,28.00
2017-06-18T17:00:34.517Z,28.30
2017-06-18T17:03:01.993Z,28.00
2017-06-18T17:05:30.213Z,28.20
2017-06-18T17:07:57.670Z,28.10
2017-06-18T17:10:25.130Z,28.30
2017-06-18T17:12:52.577Z,28.00
2017-06-18T17:15:20.034Z,27.60
2017-06-18T17:17:47.490Z,27.60
2017-06-18T17:20:14.959Z,27.50
2017-06-18T17:22:42.406Z,27.60
2017-06-18T17:25:09.898Z,27.50
2017-06-18T17:27:37.345Z,27.10
2017-06-18T17:30:04.803Z,26.50
2017-06-18T17:32:32.370Z,26.10
2017-06-18T17:34:59.826Z,26.00
2017-06-18T17:37:27.279Z,25.80
2017-06-18T17:39:54.735Z,25.70
2017-06-18T17:42:22.190Z,25.60
2017-06-18T17:44:49.652Z,25.50
2017-06-18T17:47:17.098Z,25.50
2017-06-18T17:49:44.555Z,25.40
2017-06-18T17:52:12.029Z,25.40
2017-06-18T17:54:39.470Z,25.30
2017-06-18T17:57:06.900Z,25.30
2017-06-18T17:59:34.482Z,25.20
2017-06-18T18:02:01.946Z,25.20
2017-06-18T18:04:29.397Z,25.10
2017-06-18T18:06:56.871Z,25.10
2017-06-18T18:09:24.321Z,25.00
2017-06-18T18:11:51.783Z,24.90
2017-06-18T18:14:19.225Z,24.90
2017-06-18T18:16:46.702Z,24.70
2017-06-18T18:19:14.926Z,24.60
2017-06-18T18:21:42.372Z,24.60
2017-06-18T18:24:09.887Z,24.50
2017-06-18T18:26:38.133Z,24.40
2017-06-18T18:29:05.597Z,24.40
2017-06-18T18:31:33.047Z,24.30
2017-06-18T18:34:00.502Z,24.30
2017-06-18T18:36:27.947Z,24.20
2017-06-18T18:38:55.405Z,24.20
2017-06-18T18:41:22.853Z,24.10
2017-06-18T18:43:50.320Z,24.00
2017-06-18T18:46:17.771Z,23.90
2017-06-18T18:48:45.232Z,23.80
2017-06-18T18:51:12.678Z,23.70
2017-06-18T18:53:40.254Z,23.60
2017-06-18T18:56:07.707Z,23.50
2017-06-18T18:58:35.162Z,23.40
2017-06-18T19:01:02.942Z,23.40
2017-06-18T19:03:30.393Z,23.30
2017-06-18T19:05:57.845Z,23.30
2017-06-18T19:08:25.494Z,23.30
2017-06-18T19:10:53.068Z,23.20
2017-06-18T19:13:20.621Z,23.20
2017-06-18T19:15:49.001Z,23.20
2017-06-18T19:18:16.445Z,23.20
2017-06-18T19:20:43.898Z,23.00
2017-06-18T19:23:11.350Z,22.80
2017-06-18T19:25:38.807Z,22.70
2017-06-18T19:28:06.266Z,22.60
2017-06-18T19:30:33.838Z,22.50
2017-06-18T19:33:01.286Z,22.30
2017-06-18T19:35:28.742Z,22.00
2017-06-18T19:37:56.206Z,21.80
2017-06-18T19:40:23.679Z,21.60
2017-06-18T19:42:51.130Z,21.50
2017-06-18T19:45:18.680Z,21.40
2017-06-18T19:47:46.233Z,21.30
2017-06-18T19:50:13.683Z,21.30
2017-06-18T19:52:41.138Z,21.20
2017-06-18T19:55:08.598Z,21.10
2017-06-18T19:57:36.057Z,21.10
2017-06-18T20:00:03.514Z,21.00
2017-06-18T20:02:30.969Z,21.00
2017-06-18T20:04:58.430Z,21.10
2017-06-18T20:07:25.886Z,21.00
2017-06-18T20:09:53.338Z,20.90
2017-06-18T20:12:20.794Z,20.90
2017-06-18T20:14:48.441Z,20.90
2017-06-18T20:17:15.941Z,20.80
2017-06-18T20:19:44.161Z,20.70
2017-06-18T20:22:11.658Z,20.70
2017-06-18T20:24:39.121Z,20.60
2017-06-18T20:27:06.666Z,20.50
2017-06-18T20:29:34.134Z,20.50
2017-06-18T20:32:01.578Z,20.50
2017-06-18T20:34:29.042Z,20.50
2017-06-18T20:36:56.498Z,20.50
2017-06-18T20:39:23.957Z,20.60
2017-06-18T20:41:51.413Z,20.60
2017-06-18T20:44:18.882Z,20.70
2017-06-18T20:46:46.330Z,20.70
2017-06-18T20:49:13.783Z,20.80
2017-06-18T20:51:41.245Z,20.90
2017-06-18T20:54:08.694Z,20.90
2017-06-18T20:56:36.158Z,20.80
2017-06-18T20:59:03.618Z,20.70
2017-06-18T21:01:31.074Z,20.60
2017-06-18T21:03:59.306Z,20.60
2017-06-18T21:06:26.796Z,20.50
2017-06-18T21:08:54.243Z,20.50
2017-06-18T21:11:21.804Z,20.40
2017-06-18T21:13:49.253Z,20.40
2017-06-18T21:16:16.861Z,20.40
2017-06-18T21:18:44.305Z,20.40
2017-06-18T21:21:11.782Z,20.30
2017-06-18T21:23:39.225Z,20.30
2017-06-18T21:26:06.751Z,20.20
2017-06-18T21:28:34.209Z,20.10
2017-06-18T21:31:01.653Z,20.10
2017-06-18T21:33:29.213Z,20.00
2017-06-18T21:35:56.658Z,20.00
2017-06-18T21:38:24.234Z,20.00
2017-06-18T21:40:51.692Z,19.90
2017-06-18T21:43:19.147Z,19.90
2017-06-18T21:45:46.602Z,19.80
2017-06-18T21:48:14.026Z,19.80
2017-06-18T21:50:41.609Z,19.80
2017-06-18T21:53:09.075Z,19.60
2017-06-18T21:55:36.635Z,19.50
2017-06-18T21:58:04.097Z,19.40
2017-06-18T22:02:35.957Z,19.30
2017-06-18T22:05:03.413Z,19.20
2017-06-18T22:07:30.862Z,19.10
2017-06-18T22:09:58.321Z,19.00
2017-06-18T22:12:25.777Z,19.00
2017-06-18T22:14:53.230Z,18.90
2017-06-18T22:17:20.673Z,18.80
2017-06-18T22:19:48.147Z,18.70
2017-06-18T22:22:15.589Z,18.60
2017-06-18T22:24:43.045Z,18.60
2017-06-18T22:27:10.506Z,18.50
2017-06-18T22:29:37.965Z,18.40
2017-06-18T22:32:05.426Z,18.30
2017-06-18T22:34:32.874Z,18.30
2017-06-18T22:37:00.450Z,18.50
2017-06-18T22:39:27.907Z,18.50
2017-06-18T22:41:55.358Z,18.40
2017-06-18T22:44:22.915Z,18.30
2017-06-18T22:46:50.383Z,18.30
2017-06-18T22:49:17.936Z,18.30
2017-06-18T22:51:45.385Z,18.30
2017-06-18T22:54:12.949Z,18.30
2017-06-18T22:56:40.410Z,18.30
2017-06-18T22:59:07.862Z,18.30
2017-06-18T23:01:35.321Z,18.20
2017-06-18T23:04:02.775Z,18.10
2017-06-18T23:06:30.249Z,17.80
2017-06-18T23:08:58.474Z,17.40
2017-06-18T23:11:25.953Z,17.40
2017-06-18T23:13:53.425Z,17.30
2017-06-18T23:16:20.874Z,17.10
2017-06-18T23:18:48.343Z,17.10
2017-06-18T23:21:15.786Z,17.10
2017-06-18T23:23:43.258Z,16.90
2017-06-18T23:26:10.706Z,16.70
2017-06-18T23:28:38.169Z,16.70
2017-06-18T23:31:05.719Z,16.60
2017-06-18T23:33:33.183Z,16.50
2017-06-18T23:36:00.731Z,16.50
2017-06-18T23:38:28.197Z,16.40
2017-06-18T23:40:55.654Z,16.40
2017-06-18T23:43:23.126Z,16.50
2017-06-18T23:45:51.394Z,16.90
2017-06-18T23:48:18.843Z,16.90
2017-06-18T23:50:46.298Z,17.00
2017-06-18T23:53:14.530Z,17.00
2017-06-18T23:55:41.985Z,16.90
2017-06-18T23:58:09.441Z,16.70
